Time;durP1;ratioP1;P1;durP2;ratioP2;P2;SDS_P1;SDS_P2;PMS_P1;PMS_P2;Temp;Humidity;BMP_temperature;BMP_pressure;BME280_temperature;BME280_humidity;BME280_pressure;Samples;Min_cycle;Max_cycle;Signal;HPM_P1;HPM_P2
2022/09/30 00:00:19;;;;;;;8.45;6.88;;;;;;;6.93;100.00;99829.97;4914345;29;20036;-72
2022/09/30 00:02:44;;;;;;;8.43;6.05;;;;;;;7.01;100.00;99827.34;4909690;29;20047;-73
2022/09/30 00:05:09;;;;;;;7.82;6.63;;;;;;;7.10;100.00;99818.56;4910213;29;20478;-72
2022/09/30 00:07:35;;;;;;;12.25;7.70;;;;;;;7.18;100.00;99819.44;4915905;29;20043;-71
2022/09/30 00:10:00;;;;;;;10.23;7.10;;;;;;;7.21;100.00;99827.28;4914105;29;20071;-72
2022/09/30 00:12:26;;;;;;;9.15;6.97;;;;;;;7.24;99.44;99829.88;4908066;29;20040;-72
2022/09/30 00:14:52;;;;;;;8.48;6.85;;;;;;;7.16;99.37;99827.28;4908383;29;20044;-72
2022/09/30 00:17:17;;;;;;;8.82;7.13;;;;;;;7.11;100.00;99830.81;4909810;29;20056;-72
2022/09/30 00:19:43;;;;;;;15.07;7.72;;;;;;;7.06;100.00;99829.97;4911192;29;20072;-72
2022/09/30 00:22:08;;;;;;;10.05;7.85;;;;;;;6.97;99.17;99830.88;4906896;29;20040;-72
2022/09/30 00:24:33;;;;;;;8.98;7.53;;;;;;;6.89;99.42;99827.34;4914646;29;20099;-71
2022/09/30 00:26:59;;;;;;;8.77;7.18;;;;;;;6.83;99.44;99828.25;4906385;29;20040;-72
2022/09/30 00:29:24;;;;;;;8.95;7.25;;;;;;;6.68;99.95;99830.91;4915201;29;20040;-73
2022/09/30 00:31:49;;;;;;;10.18;7.85;;;;;;;6.54;100.00;99834.41;4909599;29;20104;-72
2022/09/30 00:34:18;;;;;;;9.70;8.52;;;;;;;6.42;100.00;99842.31;4911359;29;20040;-72
2022/09/30 00:36:46;;;;;;;11.88;7.22;;;;;;;6.29;100.00;99848.44;4907435;29;20032;-73
2022/09/30 00:39:18;;;;;;;8.48;7.57;;;;;;;6.23;100.00;99846.66;4910300;29;20044;-72
2022/09/30 00:41:46;;;;;;;8.48;7.63;;;;;;;6.14;100.00;99842.28;4909666;29;20067;-72
2022/09/30 00:44:39;;;;;;;10.30;7.30;;;;;;;6.07;100.00;99840.53;4908739;29;20040;-72
2022/09/30 00:47:27;;;;;;;11.35;8.07;;;;;;;6.05;100.00;99846.63;4909266;29;20036;-72
2022/09/30 00:49:54;;;;;;;9.60;7.18;;;;;;;6.03;100.00;99853.66;4910097;29;20123;-72
2022/09/30 00:52:19;;;;;;;8.38;7.45;;;;;;;6.01;100.00;99855.38;4914575;29;20080;-72
2022/09/30 00:54:45;;;;;;;15.00;7.25;;;;;;;5.95;100.00;99868.44;4909645;29;20068;-72
2022/09/30 00:57:10;;;;;;;8.52;6.70;;;;;;;5.92;100.00;99869.28;4908170;29;20045;-72
2022/09/30 00:59:45;;;;;;;10.48;6.50;;;;;;;5.90;100.00;99869.28;4910865;29;20040;-72
2022/09/30 01:02:13;;;;;;;9.40;7.07;;;;;;;5.84;100.00;99871.00;4906664;29;20045;-72
2022/09/30 01:04:40;;;;;;;7.63;6.63;;;;;;;5.87;100.00;99873.66;4913703;29;20046;-73
2022/09/30 01:07:07;;;;;;;7.25;6.55;;;;;;;5.91;100.00;99871.03;4904867;29;20040;-73
2022/09/30 01:09:34;;;;;;;11.18;8.50;;;;;;;6.01;100.00;99868.47;4910768;29;20610;-73
2022/09/30 01:12:11;;;;;;;10.40;7.60;;;;;;;6.09;100.00;99859.75;4911934;29;20040;-73
2022/09/30 01:14:38;;;;;;;12.10;8.43;;;;;;;6.15;100.00;99864.97;4911560;29;20044;-72
2022/09/30 01:17:18;;;;;;;10.20;7.97;;;;;;;6.26;100.00;99865.03;4904454;29;20037;-73
2022/09/30 01:20:05;;;;;;;12.38;7.90;;;;;;;6.35;100.00;99862.38;4913670;29;20040;-73
2022/09/30 01:22:48;;;;;;;9.13;7.22;;;;;;;6.46;100.00;99866.75;4907930;29;20562;-72
2022/09/30 01:25:58;;;;;;;12.68;8.25;;;;;;;6.52;100.00;99859.78;4907757;29;20040;-72
2022/09/30 01:28:41;;;;;;;8.85;7.90;;;;;;;6.57;100.00;99857.13;4897066;29;20056;-72
2022/09/30 01:31:09;;;;;;;;;;;;;;;6.59;100.00;99850.16;4906665;29;20510;-73
2022/09/30 01:33:53;;;;;;;10.02;7.70;;;;;;;6.64;100.00;99858.88;4908353;29;20009;-72
2022/09/30 01:36:43;;;;;;;9.60;7.03;;;;;;;6.75;100.00;99857.13;4908196;29;20056;-72
2022/09/30 01:39:25;;;;;;;12.75;8.57;;;;;;;6.83;100.00;99854.47;4909794;29;20095;-72
2022/09/30 01:42:00;;;;;;;9.25;8.10;;;;;;;6.92;100.00;99859.72;4907837;29;20387;-72
2022/09/30 01:44:51;;;;;;;11.63;8.30;;;;;;;6.86;100.00;99864.97;4912801;29;20126;-72
2022/09/30 01:47:24;;;;;;;12.27;7.72;;;;;;;6.82;100.00;99865.88;4905371;29;20040;-72
2022/09/30 01:50:13;;;;;;;8.75;7.60;;;;;;;6.80;100.00;99864.97;4907281;29;20554;-72
2022/09/30 01:53:06;;;;;;;13.15;9.15;;;;;;;6.74;100.00;99868.50;4927480;29;20051;-72
2022/09/30 01:55:49;;;;;;;10.27;8.40;;;;;;;6.76;100.00;99866.75;4912598;29;20040;-72
2022/09/30 01:58:32;;;;;;;10.98;8.30;;;;;;;6.82;100.00;99872.88;4909357;29;20040;-72
2022/09/30 02:01:00;;;;;;;11.35;9.10;;;;;;;6.81;100.00;99871.97;4906201;29;20040;-72
2022/09/30 02:03:33;;;;;;;12.00;8.38;;;;;;;6.78;100.00;99867.59;4909485;29;20431;-72
2022/09/30 02:06:14;;;;;;;11.82;9.57;;;;;;;6.79;100.00;99876.38;4905286;29;20040;-72
2022/09/30 02:08:56;;;;;;;12.25;9.18;;;;;;;6.78;100.00;99882.47;4912518;29;20523;-72
2022/09/30 02:11:26;;;;;;;11.77;9.25;;;;;;;6.82;100.00;99888.59;4907314;29;20131;-72
2022/09/30 02:14:08;;;;;;;13.02;8.73;;;;;;;6.87;100.00;99884.22;4909949;29;20038;-72
2022/09/30 02:16:40;;;;;;;11.02;7.80;;;;;;;6.90;100.00;99885.06;4907997;29;20028;-72
2022/09/30 02:19:21;;;;;;;9.65;8.65;;;;;;;6.85;100.00;99899.94;4906991;29;20080;-72
2022/09/30 02:22:03;;;;;;;10.93;8.70;;;;;;;6.86;100.00;99906.94;4908074;29;20032;-72
2022/09/30 02:24:37;;;;;;;11.40;8.77;;;;;;;6.86;100.00;99895.56;4911468;29;20032;-72
2022/09/30 02:27:10;;;;;;;10.73;8.27;;;;;;;6.90;100.00;99903.44;4903251;29;20042;-72
2022/09/30 02:29:39;;;;;;;9.27;8.20;;;;;;;6.93;100.00;99897.31;4908337;29;20071;-72
2022/09/30 02:32:19;;;;;;;14.88;10.02;;;;;;;6.95;100.00;99896.44;4906991;29;20518;-74
2022/09/30 02:34:50;;;;;;;11.55;8.77;;;;;;;6.97;100.00;99906.94;4908095;29;20047;-74
2022/09/30 02:37:25;;;;;;;15.05;9.40;;;;;;;6.97;100.00;99905.19;4905064;29;20044;-73
2022/09/30 02:40:01;;;;;;;11.20;9.15;;;;;;;6.91;100.00;99905.19;4909187;29;20379;-72
2022/09/30 02:42:29;;;;;;;9.77;8.60;;;;;;;6.91;100.00;99905.19;4906227;29;20068;-73
2022/09/30 02:45:00;;;;;;;10.88;8.65;;;;;;;6.91;100.00;99907.81;4905001;29;20068;-72
2022/09/30 02:47:37;;;;;;;10.55;8.50;;;;;;;6.88;100.00;99910.44;4910560;29;20039;-73
2022/09/30 02:50:17;;;;;;;12.40;9.23;;;;;;;6.80;100.00;99901.69;4908780;29;20103;-72
2022/09/30 02:53:13;;;;;;;11.48;8.40;;;;;;;6.83;100.00;99906.06;4904732;29;20040;-72
2022/09/30 02:56:03;;;;;;;11.32;8.45;;;;;;;6.88;100.00;99917.44;4909249;29;20032;-72
2022/09/30 02:58:29;;;;;;;11.93;8.52;;;;;;;6.93;100.00;99910.44;4908041;29;20040;-73
2022/09/30 03:00:56;;;;;;;14.05;10.15;;;;;;;6.99;100.00;99910.41;4905288;29;20115;-72
2022/09/30 03:03:42;;;;;;;11.82;8.43;;;;;;;7.02;100.00;99916.56;4911971;29;20043;-72
2022/09/30 03:06:09;;;;;;;14.57;8.30;;;;;;;7.06;100.00;99917.41;4919181;29;20054;-72
2022/09/30 03:08:35;;;;;;;10.68;9.43;;;;;;;6.98;100.00;99920.03;4907002;29;20402;-72
2022/09/30 03:11:01;;;;;;;11.25;9.25;;;;;;;6.99;100.00;99928.78;4905517;29;20111;-71
2022/09/30 03:13:57;;;;;;;11.63;9.40;;;;;;;6.99;100.00;99924.41;4910210;29;20114;-72
2022/09/30 03:16:36;;;;;;;14.73;9.00;;;;;;;7.02;100.00;99919.19;4906745;29;20124;-71
2022/09/30 03:19:23;;;;;;;10.90;8.55;;;;;;;7.14;100.00;99923.50;4910086;29;20100;-71
2022/09/30 03:22:10;;;;;;;13.02;9.68;;;;;;;7.18;100.00;99930.53;4909424;29;20070;-71
2022/09/30 03:24:57;;;;;;;9.30;7.57;;;;;;;7.18;100.00;99924.41;4910984;29;20040;-72
2022/09/30 03:27:53;;;;;;;12.13;8.90;;;;;;;7.25;100.00;99932.22;4913239;29;20040;-72
2022/09/30 03:30:21;;;;;;;17.27;9.52;;;;;;;7.28;100.00;99930.47;4911689;29;20032;-72
2022/09/30 03:33:00;;;;;;;10.55;9.27;;;;;;;7.25;100.00;99928.75;4910009;29;20410;-72
2022/09/30 03:35:35;;;;;;;10.15;8.93;;;;;;;7.21;100.00;99925.25;4913754;29;20036;-72
2022/09/30 03:38:15;;;;;;;10.93;7.93;;;;;;;7.19;100.00;99931.38;4909501;29;20392;-71
2022/09/30 03:40:49;;;;;;;11.20;8.63;;;;;;;7.13;100.00;99931.41;4910374;29;20122;-72
2022/09/30 03:43:30;;;;;;;19.48;9.10;;;;;;;7.02;100.00;99934.03;4914693;29;20127;-72
2022/09/30 03:46:23;;;;;;;10.10;8.70;;;;;;;6.91;100.00;99935.78;4908556;29;20032;-72
2022/09/30 03:48:52;;;;;;;8.73;7.75;;;;;;;6.75;100.00;99934.94;4904208;29;20036;-74
2022/09/30 03:51:19;;;;;;;11.02;9.18;;;;;;;6.64;100.00;99931.44;4908107;29;20040;-73
2022/09/30 03:53:47;;;;;;;14.35;9.93;;;;;;;6.58;100.00;99932.31;4911677;29;20131;-73
2022/09/30 03:56:13;;;;;;;11.55;8.95;;;;;;;6.53;100.00;99945.41;4908109;29;20137;-72
2022/09/30 03:58:43;;;;;;;10.50;9.07;;;;;;;6.44;100.00;99948.00;4915740;29;20073;-72
2022/09/30 04:01:18;;;;;;;13.60;7.95;;;;;;;6.39;100.00;99954.13;4909698;29;20059;-73
2022/09/30 04:03:44;;;;;;;12.65;8.23;;;;;;;6.33;100.00;99953.25;4907694;29;20047;-72
2022/09/30 04:06:12;;;;;;;12.45;9.90;;;;;;;6.31;100.00;99964.59;4908475;29;20040;-72
2022/09/30 04:08:37;;;;;;;11.93;8.90;;;;;;;6.27;100.00;99958.47;4915337;29;20040;-72
2022/09/30 04:11:03;;;;;;;11.93;8.40;;;;;;;6.31;100.00;99961.97;4909410;29;20044;-72
2022/09/30 04:13:28;;;;;;;15.50;8.75;;;;;;;6.34;100.00;99967.22;4914926;29;20040;-72
2022/09/30 04:15:53;;;;;;;13.52;8.95;;;;;;;6.39;100.00;99968.09;4908716;29;20045;-73
2022/09/30 04:18:19;;;;;;;10.95;8.90;;;;;;;6.47;100.00;99962.88;4911775;29;20422;-73
2022/09/30 04:20:44;;;;;;;10.20;8.50;;;;;;;6.50;100.00;99963.75;4911638;29;20039;-73
2022/09/30 04:23:10;;;;;;;12.38;8.82;;;;;;;6.57;100.00;99962.88;4912659;29;20044;-74
2022/09/30 04:25:35;;;;;;;14.63;8.40;;;;;;;6.58;100.00;99964.66;4923929;29;20087;-73
2022/09/30 04:28:00;;;;;;;11.00;8.27;;;;;;;6.66;100.00;99966.41;4912832;29;20102;-73
2022/09/30 04:30:26;;;;;;;9.57;7.90;;;;;;;6.69;100.00;99971.66;4910535;29;20036;-73
2022/09/30 04:32:51;;;;;;;11.25;8.77;;;;;;;6.76;100.00;99974.28;4906218;29;20124;-73
2022/09/30 04:35:17;;;;;;;10.05;7.78;;;;;;;6.80;100.00;99981.25;4912960;29;20068;-73
2022/09/30 04:37:43;;;;;;;12.45;9.15;;;;;;;6.75;100.00;99980.38;4914465;29;20055;-73
2022/09/30 04:40:10;;;;;;;11.25;8.93;;;;;;;6.77;100.00;99986.50;4912382;29;20040;-73
2022/09/30 04:42:38;;;;;;;12.50;9.45;;;;;;;6.78;100.00;99983.00;4923124;29;20410;-73
2022/09/30 04:45:03;;;;;;;10.13;8.77;;;;;;;6.82;100.00;99983.91;4909099;29;20071;-73
2022/09/30 04:47:30;;;;;;;11.98;9.07;;;;;;;6.81;100.00;99987.38;4906443;29;20412;-73
2022/09/30 04:49:56;;;;;;;12.25;8.60;;;;;;;6.78;100.00;99987.38;4911143;29;20037;-73
2022/09/30 04:52:21;;;;;;;9.85;7.38;;;;;;;6.77;100.00;99985.63;4914258;29;20514;-73
2022/09/30 04:54:46;;;;;;;13.80;9.30;;;;;;;6.85;100.00;99983.88;4911171;29;20150;-73
2022/09/30 04:57:12;;;;;;;11.65;9.52;;;;;;;6.94;100.00;99988.25;4911075;29;20043;-72
2022/09/30 04:59:38;;;;;;;10.38;8.45;;;;;;;7.00;100.00;99988.28;4906471;29;20055;-73
2022/09/30 05:02:04;;;;;;;11.95;8.48;;;;;;;6.93;100.00;99981.25;4908207;29;20036;-72
2022/09/30 05:04:30;;;;;;;10.90;8.48;;;;;;;6.86;100.00;99985.63;4911388;29;20032;-73
2022/09/30 05:06:55;;;;;;;12.23;9.90;;;;;;;6.80;100.00;99980.38;4910020;29;20036;-72
2022/09/30 05:09:20;;;;;;;12.98;9.23;;;;;;;6.75;100.00;99984.75;4911418;29;20054;-72
2022/09/30 05:11:46;;;;;;;12.82;9.13;;;;;;;6.70;100.00;99992.59;4905354;29;20040;-72
2022/09/30 05:14:11;;;;;;;11.48;9.95;;;;;;;6.64;100.00;99997.00;4907984;29;20424;-72
2022/09/30 05:16:36;;;;;;;10.77;8.98;;;;;;;6.54;100.00;99999.59;4908254;29;20505;-73
2022/09/30 05:19:02;;;;;;;15.38;10.10;;;;;;;6.50;100.00;100003.09;4911140;29;20039;-72
2022/09/30 05:21:27;;;;;;;20.60;11.10;;;;;;;6.45;100.00;100002.19;4907951;29;20103;-73
2022/09/30 05:23:53;;;;;;;16.92;10.18;;;;;;;6.46;100.00;100006.56;4905349;29;20051;-73
2022/09/30 05:26:18;;;;;;;12.77;8.80;;;;;;;6.51;100.00;100009.19;4908076;29;20044;-73
2022/09/30 05:28:43;;;;;;;15.43;9.43;;;;;;;6.49;100.00;100017.06;4909251;29;20048;-73
2022/09/30 05:31:11;;;;;;;13.77;10.00;;;;;;;6.53;100.00;100018.81;4908125;29;20096;-73
2022/09/30 05:33:36;;;;;;;14.93;11.40;;;;;;;6.57;100.00;100027.56;4910532;29;20529;-72
2022/09/30 05:36:05;;;;;;;15.98;9.93;;;;;;;6.67;100.00;100025.84;4905880;29;20036;-72
2022/09/30 05:38:30;;;;;;;12.35;10.25;;;;;;;6.71;100.00;100030.22;4909257;29;20379;-73
2022/09/30 05:40:56;;;;;;;15.93;10.80;;;;;;;6.82;100.00;100035.47;4905890;29;20048;-72
2022/09/30 05:43:21;;;;;;;13.43;10.15;;;;;;;6.89;100.00;100040.75;4912144;29;20028;-72
2022/09/30 05:45:56;;;;;;;11.27;9.23;;;;;;;6.93;100.00;100047.72;4904713;29;20048;-73
2022/09/30 05:48:24;;;;;;;16.70;10.48;;;;;;;6.99;100.00;100039.84;4910349;29;20071;-73
2022/09/30 05:50:54;;;;;;;10.82;8.57;;;;;;;6.99;100.00;100039.84;4906127;29;20068;-73
2022/09/30 05:53:19;;;;;;;13.50;9.48;;;;;;;7.01;100.00;100048.59;4909059;29;20048;-73
2022/09/30 05:55:46;;;;;;;14.98;10.07;;;;;;;7.01;100.00;100043.34;4905997;29;20558;-72
2022/09/30 05:58:12;;;;;;;14.35;9.35;;;;;;;7.00;100.00;100044.25;4912383;29;20055;-73
2022/09/30 06:00:42;;;;;;;14.25;10.00;;;;;;;6.98;100.00;100045.97;4907917;29;20515;-73
2022/09/30 06:03:07;;;;;;;14.30;9.68;;;;;;;6.97;100.00;100057.34;4908354;29;20059;-73
2022/09/30 06:05:33;;;;;;;14.25;10.73;;;;;;;7.06;100.00;100051.22;4909541;29;20529;-73
2022/09/30 06:07:58;;;;;;;14.15;10.38;;;;;;;7.16;100.00;100050.38;4907635;29;20048;-73
2022/09/30 06:10:24;;;;;;;15.60;11.02;;;;;;;7.24;100.00;100066.13;4908153;29;20036;-73
2022/09/30 06:12:50;;;;;;;16.15;11.88;;;;;;;7.29;100.00;100063.50;4911668;29;20119;-73
2022/09/30 06:15:16;;;;;;;12.07;9.95;;;;;;;7.34;100.00;100062.63;4913739;29;20052;-72
2022/09/30 06:17:41;;;;;;;14.98;9.02;;;;;;;7.34;100.00;100062.63;4904519;29;20032;-73
2022/09/30 06:20:08;;;;;;;18.00;9.75;;;;;;;7.38;100.00;100061.72;4907919;29;20534;-73
2022/09/30 06:22:34;;;;;;;12.82;9.05;;;;;;;7.44;100.00;100059.09;4908726;29;20510;-73
2022/09/30 06:25:01;;;;;;;15.48;10.75;;;;;;;7.51;100.00;100066.97;4911007;29;20056;-72
2022/09/30 06:27:27;;;;;;;12.52;9.95;;;;;;;7.57;100.00;100069.56;4905428;29;20573;-73
2022/09/30 06:29:52;;;;;;;15.40;11.95;;;;;;;7.62;100.00;100063.47;4912025;29;20048;-72
2022/09/30 06:32:17;;;;;;;14.43;10.85;;;;;;;7.67;100.00;100069.56;4905713;29;20112;-73
2022/09/30 06:34:43;;;;;;;16.92;10.45;;;;;;;7.72;100.00;100072.19;4906078;29;20035;-74
2022/09/30 06:37:10;;;;;;;12.43;10.80;;;;;;;7.73;100.00;100066.06;4908705;29;20176;-74
2022/09/30 06:39:35;;;;;;;13.73;10.20;;;;;;;7.71;100.00;100073.06;4913503;29;20083;-75
2022/09/30 06:42:01;;;;;;;13.57;9.90;;;;;;;7.74;100.00;100078.31;4904045;29;20072;-74
2022/09/30 06:44:26;;;;;;;12.93;11.38;;;;;;;7.82;100.00;100087.03;4910228;29;20044;-74
2022/09/30 06:46:52;;;;;;;21.70;10.45;;;;;;;7.88;100.00;100087.03;4906378;29;20068;-73
2022/09/30 06:49:18;;;;;;;14.18;11.27;;;;;;;7.85;100.00;100091.41;4907975;29;20059;-73
2022/09/30 06:51:43;;;;;;;16.00;12.68;;;;;;;7.90;100.00;100089.66;4910857;29;20513;-73
2022/09/30 06:54:09;;;;;;;15.65;11.77;;;;;;;8.01;100.00;100089.63;4911775;29;20044;-73
2022/09/30 06:56:35;;;;;;;13.50;11.23;;;;;;;8.13;100.00;100093.09;4909956;29;20115;-74
2022/09/30 06:59:01;;;;;;;12.27;10.38;;;;;;;8.25;100.00;100091.28;4909237;29;20704;-73
2022/09/30 07:01:28;;;;;;;15.18;12.02;;;;;;;8.34;100.00;100086.03;4912118;29;20043;-73
2022/09/30 07:03:56;;;;;;;21.73;11.68;;;;;;;8.46;100.00;100091.28;4905077;29;20036;-73
2022/09/30 07:06:22;;;;;;;12.55;11.00;;;;;;;8.56;100.00;100097.34;4908732;29;20091;-74
2022/09/30 07:08:48;;;;;;;16.40;12.82;;;;;;;8.62;100.00;100094.69;4909973;29;20095;-73
2022/09/30 07:11:13;;;;;;;14.70;11.85;;;;;;;8.74;100.00;100102.50;4910101;29;20463;-73
2022/09/30 07:13:44;;;;;;;14.82;12.30;;;;;;;8.83;100.00;100100.69;4909358;29;20424;-73
2022/09/30 07:16:11;;;;;;;17.35;12.00;;;;;;;8.94;100.00;100109.44;4908173;29;20115;-73
2022/09/30 07:18:37;;;;;;;15.57;12.60;;;;;;;9.04;100.00;100111.13;4915375;29;20036;-73
2022/09/30 07:21:03;;;;;;;14.55;12.32;;;;;;;9.13;99.82;100108.41;4908323;29;20376;-74
2022/09/30 07:23:29;;;;;;;16.60;11.88;;;;;;;9.24;99.41;100115.34;4912743;29;20039;-74
2022/09/30 07:26:04;;;;;;;21.88;12.15;;;;;;;9.37;98.77;100109.97;4911629;29;20085;-74
2022/09/30 07:28:34;;;;;;;17.02;12.45;;;;;;;9.47;98.34;100116.06;4909652;29;20080;-74
2022/09/30 07:31:05;;;;;;;15.57;11.82;;;;;;;9.55;97.68;100116.00;4910274;29;20036;-73
2022/09/30 07:33:31;;;;;;;12.85;11.20;;;;;;;9.62;97.87;100121.19;4915006;29;20481;-74
2022/09/30 07:35:59;;;;;;;13.82;11.32;;;;;;;9.74;97.29;100130.72;4911256;29;20037;-74
2022/09/30 07:38:28;;;;;;;16.77;12.85;;;;;;;9.84;96.96;100126.25;4910496;29;20115;-74
2022/09/30 07:40:57;;;;;;;15.98;11.15;;;;;;;9.93;95.75;100126.19;4908351;29;20040;-73
2022/09/30 07:43:24;;;;;;;14.25;11.35;;;;;;;10.03;94.63;100127.84;4912722;29;20111;-73
2022/09/30 07:45:50;;;;;;;15.45;11.68;;;;;;;10.14;94.08;100129.47;4908557;29;20054;-73
2022/09/30 07:51:00;;;;;;;16.17;11.82;;;;;;;10.30;93.15;100139.88;4907917;29;20064;-73
2022/09/30 07:53:25;;;;;;;19.23;13.15;;;;;;;10.38;92.88;100150.34;4925304;29;20130;-73
2022/09/30 07:55:51;;;;;;;17.50;11.98;;;;;;;10.44;93.29;100152.91;4908193;29;20516;-73
2022/09/30 07:58:16;;;;;;;13.93;11.13;;;;;;;10.55;92.06;100151.91;4913699;29;20032;-73
2022/09/30 08:00:42;;;;;;;15.32;12.00;;;;;;;10.67;92.26;100152.63;4909613;29;20045;-72
2022/09/30 08:03:07;;;;;;;14.15;11.73;;;;;;;10.76;91.95;100151.63;4909785;29;20075;-73
2022/09/30 08:05:38;;;;;;;13.93;11.30;;;;;;;10.82;90.41;100154.22;4912359;29;20118;-73
2022/09/30 08:08:05;;;;;;;14.75;12.15;;;;;;;10.89;90.39;100149.69;4909213;29;20059;-73
2022/09/30 08:10:34;;;;;;;14.63;11.80;;;;;;;10.96;90.07;100152.25;4909472;29;20131;-73
2022/09/30 08:13:01;;;;;;;14.30;12.52;;;;;;;11.03;90.13;100160.06;4912773;29;20056;-73
2022/09/30 08:15:26;;;;;;;13.05;11.27;;;;;;;11.12;89.76;100155.53;4910910;29;20383;-73
2022/09/30 08:17:51;;;;;;;15.27;13.15;;;;;;;11.20;89.82;100152.78;4906948;29;20044;-73
2022/09/30 08:20:17;;;;;;;16.80;11.82;;;;;;;11.29;88.60;100147.38;4913564;29;20040;-74
2022/09/30 08:22:42;;;;;;;12.45;10.93;;;;;;;11.36;88.40;100148.13;4914857;29;20036;-74
2022/09/30 08:25:07;;;;;;;13.32;11.40;;;;;;;11.39;87.71;100159.53;4909690;29;20028;-74
2022/09/30 08:27:33;;;;;;;14.93;12.05;;;;;;;11.43;87.30;100159.50;4911033;29;20040;-74
2022/09/30 08:29:58;;;;;;;13.43;11.80;;;;;;;11.49;88.02;100157.63;4912437;29;20048;-74
2022/09/30 08:32:23;;;;;;;16.17;11.18;;;;;;;11.59;87.15;100158.34;4903277;29;20055;-74
2022/09/30 08:34:49;;;;;;;14.90;12.80;;;;;;;11.66;86.52;100154.72;4909776;29;20044;-73
2022/09/30 08:37:14;;;;;;;15.48;11.30;;;;;;;11.73;86.30;100158.97;4907885;29;20036;-74
2022/09/30 08:39:41;;;;;;;14.90;11.25;;;;;;;11.82;86.51;100158.84;4912274;29;20044;-74
2022/09/30 08:42:24;;;;;;;17.30;12.25;;;;;;;11.90;85.43;100165.81;4905826;29;20045;-74
2022/09/30 08:44:50;;;;;;;16.48;13.75;;;;;;;11.95;85.50;100167.47;4912771;29;20054;-74
2022/09/30 08:47:36;;;;;;;15.00;12.25;;;;;;;12.05;85.80;100174.34;4906741;29;20028;-73
2022/09/30 08:50:29;;;;;;;17.67;13.63;;;;;;;12.19;85.60;100178.50;4906230;29;20080;-74
2022/09/30 08:53:02;;;;;;;18.33;13.73;;;;;;;12.18;85.29;100172.34;4912045;29;20047;-73
2022/09/30 08:55:39;;;;;;;16.23;13.60;;;;;;;12.24;84.84;100180.16;4909710;29;20498;-74
2022/09/30 08:58:10;;;;;;;14.63;12.20;;;;;;;12.38;84.64;100173.75;4906883;29;20069;-74
2022/09/30 09:00:35;;;;;;;18.75;13.02;;;;;;;12.42;83.66;100176.31;4915272;29;20578;-74
2022/09/30 09:03:02;;;;;;;19.23;14.13;;;;;;;12.48;83.70;100164.72;4909299;29;20040;-73
2022/09/30 09:05:38;;;;;;;18.85;12.13;;;;;;;12.58;83.31;100178.66;4905456;29;20036;-74
2022/09/30 09:08:15;;;;;;;15.90;12.38;;;;;;;12.68;83.14;100186.38;4911869;29;20463;-74
2022/09/30 09:10:47;;;;;;;17.42;12.55;;;;;;;12.74;81.90;100177.44;4908376;29;20093;-74
2022/09/30 09:13:38;;;;;;;16.25;13.13;;;;;;;12.80;82.30;100187.88;4907187;29;20716;-74
2022/09/30 09:16:43;;;;;;;15.10;12.20;;;;;;;12.92;81.88;100173.53;4906501;29;20438;-74
2022/09/30 09:19:16;;;;;;;16.83;12.70;;;;;;;13.02;81.57;100183.03;4901915;29;20048;-74
2022/09/30 09:21:55;;;;;;;15.93;12.23;;;;;;;13.11;81.20;100176.63;4906611;29;20517;-74
2022/09/30 09:24:25;;;;;;;17.25;13.38;;;;;;;13.14;80.24;100173.91;4926902;29;20473;-74
2022/09/30 09:26:53;;;;;;;17.40;13.70;;;;;;;13.12;80.37;100184.53;4906230;29;20044;-73
2022/09/30 09:29:36;;;;;;;18.80;15.68;;;;;;;13.18;80.64;100177.34;4907626;29;20176;-74
2022/09/30 09:32:11;;;;;;;15.32;11.95;;;;;;;13.30;80.11;100178.00;4909001;29;20040;-74
2022/09/30 09:34:37;;;;;;;16.92;14.02;;;;;;;13.42;79.76;100175.97;4911172;29;20149;-74
2022/09/30 09:37:10;;;;;;;19.08;14.45;;;;;;;13.52;79.48;100173.06;4904187;29;20499;-74
2022/09/30 09:39:51;;;;;;;18.23;13.85;;;;;;;13.57;78.66;100179.13;4914021;29;20059;-74
2022/09/30 09:42:35;;;;;;;21.52;17.05;;;;;;;13.69;79.76;100174.44;4906785;29;20145;-73
2022/09/30 09:45:07;;;;;;;18.23;14.82;;;;;;;13.68;79.20;100172.72;4906094;29;20051;-73
2022/09/30 09:47:32;;;;;;;17.42;14.13;;;;;;;13.75;78.79;100164.56;4911461;29;20040;-73
2022/09/30 09:50:02;;;;;;;16.00;13.52;;;;;;;13.91;78.66;100174.75;4910431;29;20418;-74
2022/09/30 09:52:45;;;;;;;23.75;18.02;;;;;;;14.08;78.25;100169.03;4912350;29;20044;-74
2022/09/30 09:55:13;;;;;;;21.42;15.75;;;;;;;14.14;77.99;100167.06;4911001;29;20047;-74
2022/09/30 09:57:39;;;;;;;15.75;14.05;;;;;;;14.19;76.89;100164.31;4911299;29;20410;-74
2022/09/30 10:03:02;;;;;;;20.48;15.50;;;;;;;14.27;74.88;100161.44;4911327;29;20588;-74
2022/09/30 10:05:38;;;;;;;18.20;13.30;;;;;;;14.21;75.21;100168.66;4909301;29;20124;-74
2022/09/30 10:08:15;;;;;;;18.83;13.10;;;;;;;14.28;74.66;100173.78;4906235;29;20585;-73
2022/09/30 10:10:51;;;;;;;17.02;12.77;;;;;;;14.37;74.18;100176.22;4907289;29;20039;-74
2022/09/30 10:13:28;;;;;;;15.93;13.75;;;;;;;14.42;74.03;100169.84;4910151;29;20049;-74
2022/09/30 10:15:55;;;;;;;15.10;13.60;;;;;;;14.49;73.01;100167.91;4905674;29;20136;-74
2022/09/30 10:18:27;;;;;;;16.58;12.77;;;;;;;14.58;72.18;100167.66;4909826;29;20484;-74
2022/09/30 10:20:56;;;;;;;17.65;12.10;;;;;;;14.64;71.24;100172.81;4905332;29;20521;-74
2022/09/30 10:23:34;;;;;;;11.35;10.05;;;;;;;14.71;68.49;100164.69;4915630;29;20067;-74
2022/09/30 10:26:02;;;;;;;13.55;11.40;;;;;;;14.79;68.38;100166.19;4905712;29;20044;-74
2022/09/30 10:28:45;;;;;;;11.93;9.10;;;;;;;14.78;64.76;100166.25;4913932;29;20830;-74
2022/09/30 10:31:22;;;;;;;12.07;10.60;;;;;;;14.83;67.00;100173.16;4909775;29;20044;-72
2022/09/30 10:34:12;;;;;;;10.48;9.18;;;;;;;14.94;66.44;100172.84;4911134;29;20102;-73
2022/09/30 10:36:40;;;;;;;13.35;10.68;;;;;;;15.04;66.78;100170.78;4910394;29;20399;-74
2022/09/30 10:39:27;;;;;;;12.77;10.75;;;;;;;15.06;65.74;100174.25;4910818;29;20045;-73
2022/09/30 10:42:02;;;;;;;14.73;11.48;;;;;;;15.12;65.00;100161.66;4910755;29;20135;-74
2022/09/30 10:44:28;;;;;;;12.63;10.40;;;;;;;15.19;65.64;100162.31;4915614;29;20443;-74
2022/09/30 10:47:00;;;;;;;12.43;11.05;;;;;;;15.27;65.00;100162.97;4907385;29;20044;-74
2022/09/30 10:49:44;;;;;;;12.00;10.80;;;;;;;15.32;65.62;100150.38;4916964;29;20047;-74
2022/09/30 10:52:32;;;;;;;14.07;11.77;;;;;;;15.40;65.23;100152.78;4911490;29;20044;-74
2022/09/30 10:54:59;;;;;;;13.45;11.35;;;;;;;15.40;66.49;100157.25;4911867;29;20084;-74
2022/09/30 10:57:32;;;;;;;13.52;11.80;;;;;;;15.45;65.86;100163.28;4908380;29;20131;-74
2022/09/30 11:00:14;;;;;;;17.42;12.13;;;;;;;15.44;65.05;100161.56;4913215;29;20059;-74
2022/09/30 11:02:47;;;;;;;13.05;11.07;;;;;;;15.51;65.78;100156.00;4908989;29;20443;-73
2022/09/30 11:05:21;;;;;;;14.18;11.25;;;;;;;15.63;65.87;100154.72;4923666;29;20044;-73
2022/09/30 11:08:18;;;;;;;13.77;10.18;;;;;;;15.70;63.34;100158.94;4913826;29;20100;-73
2022/09/30 11:10:52;;;;;;;15.38;12.00;;;;;;;15.75;63.11;100159.66;4906903;29;20057;-73
2022/09/30 11:13:26;;;;;;;16.85;11.40;;;;;;;15.94;62.83;100161.72;4909702;29;20131;-74
2022/09/30 11:16:03;;;;;;;13.68;12.18;;;;;;;16.08;62.42;100156.75;4909367;29;20066;-74
2022/09/30 11:18:46;;;;;;;14.32;10.13;;;;;;;16.23;60.66;100160.69;4914831;29;20127;-73
2022/09/30 11:21:20;;;;;;;9.73;8.13;;;;;;;16.24;59.71;100159.75;4909470;29;20123;-74
2022/09/30 11:23:51;;;;;;;10.02;9.10;;;;;;;16.40;59.35;100146.75;4915782;29;20065;-74
2022/09/30 11:26:36;;;;;;;10.55;9.55;;;;;;;16.47;59.63;100153.63;4908323;29;20115;-73
2022/09/30 11:29:20;;;;;;;11.57;9.38;;;;;;;16.73;58.15;100149.13;4908484;29;20076;-74
2022/09/30 11:31:51;;;;;;;12.75;8.63;;;;;;;16.82;58.36;100148.78;4911394;29;20035;-74
2022/09/30 11:34:48;;;;;;;12.18;10.43;;;;;;;16.95;58.87;100143.88;4911388;29;20124;-73
2022/09/30 11:37:30;;;;;;;10.75;8.20;;;;;;;17.25;59.00;100136.47;4907486;29;20506;-74
2022/09/30 11:40:05;;;;;;;10.88;9.75;;;;;;;17.39;57.14;100144.78;4911120;29;20055;-74
2022/09/30 11:42:42;;;;;;;10.82;9.73;;;;;;;17.49;57.44;100135.47;4919931;29;20043;-74
2022/09/30 11:45:23;;;;;;;12.10;10.20;;;;;;;17.71;56.81;100145.25;4909279;29;20434;-74